sensor_id;sensor_type;location;lat;lon;timestamp;P1;durP1;ratioP1;P2;durP2;ratioP2
3747;SDS011;1889;50.058;8.688;2023-08-06T00:01:05;5.13;;;3.20;;
3747;SDS011;1889;50.058;8.688;2023-08-06T00:03:35;3.62;;;3.33;;
3747;SDS011;1889;50.058;8.688;2023-08-06T00:06:07;5.30;;;3.80;;
3747;SDS011;1889;50.058;8.688;2023-08-06T00:08:36;7.83;;;3.60;;
3747;SDS011;1889;50.058;8.688;2023-08-06T00:11:05;3.53;;;3.00;;
3747;SDS011;1889;50.058;8.688;2023-08-06T00:13:34;3.92;;;3.27;;
3747;SDS011;1889;50.058;8.688;2023-08-06T00:16:12;4.27;;;3.10;;
3747;SDS011;1889;50.058;8.688;2023-08-06T00:18:42;4.63;;;3.17;;
3747;SDS011;1889;50.058;8.688;2023-08-06T00:21:11;3.97;;;3.20;;
3747;SDS011;1889;50.058;8.688;2023-08-06T00:23:40;3.37;;;2.97;;
3747;SDS011;1889;50.058;8.688;2023-08-06T00:26:09;4.90;;;3.03;;
3747;SDS011;1889;50.058;8.688;2023-08-06T00:28:39;3.47;;;2.80;;
3747;SDS011;1889;50.058;8.688;2023-08-06T00:31:08;3.93;;;3.30;;
3747;SDS011;1889;50.058;8.688;2023-08-06T00:33:37;3.40;;;3.17;;
3747;SDS011;1889;50.058;8.688;2023-08-06T00:36:06;3.20;;;2.90;;
3747;SDS011;1889;50.058;8.688;2023-08-06T00:38:35;6.00;;;3.60;;
3747;SDS011;1889;50.058;8.688;2023-08-06T00:41:04;3.63;;;3.10;;
3747;SDS011;1889;50.058;8.688;2023-08-06T00:43:33;3.10;;;2.90;;
3747;SDS011;1889;50.058;8.688;2023-08-06T00:46:02;3.43;;;3.07;;
3747;SDS011;1889;50.058;8.688;2023-08-06T00:48:31;2.83;;;2.63;;
3747;SDS011;1889;50.058;8.688;2023-08-06T00:51:01;4.20;;;3.07;;
3747;SDS011;1889;50.058;8.688;2023-08-06T00:53:30;3.53;;;3.20;;
3747;SDS011;1889;50.058;8.688;2023-08-06T00:55:59;3.57;;;3.10;;
3747;SDS011;1889;50.058;8.688;2023-08-06T00:58:29;3.27;;;3.00;;
3747;SDS011;1889;50.058;8.688;2023-08-06T01:00:59;4.67;;;3.10;;
3747;SDS011;1889;50.058;8.688;2023-08-06T01:03:28;3.10;;;2.80;;
3747;SDS011;1889;50.058;8.688;2023-08-06T01:05:57;3.77;;;2.60;;
3747;SDS011;1889;50.058;8.688;2023-08-06T01:08:37;4.30;;;2.90;;
3747;SDS011;1889;50.058;8.688;2023-08-06T01:14:16;5.50;;;3.23;;
3747;SDS011;1889;50.058;8.688;2023-08-06T01:16:48;4.83;;;3.07;;
3747;SDS011;1889;50.058;8.688;2023-08-06T01:19:19;3.87;;;2.90;;
3747;SDS011;1889;50.058;8.688;2023-08-06T01:21:49;4.27;;;2.97;;
3747;SDS011;1889;50.058;8.688;2023-08-06T01:24:19;7.95;;;3.35;;
3747;SDS011;1889;50.058;8.688;2023-08-06T01:27:00;4.30;;;2.60;;
3747;SDS011;1889;50.058;8.688;2023-08-06T01:29:25;3.40;;;3.10;;
3747;SDS011;1889;50.058;8.688;2023-08-06T01:31:55;3.85;;;2.70;;
3747;SDS011;1889;50.058;8.688;2023-08-06T01:34:27;3.95;;;2.70;;
3747;SDS011;1889;50.058;8.688;2023-08-06T01:36:59;2.80;;;2.60;;
3747;SDS011;1889;50.058;8.688;2023-08-06T01:39:29;2.67;;;2.47;;
3747;SDS011;1889;50.058;8.688;2023-08-06T01:41:59;3.37;;;3.07;;
3747;SDS011;1889;50.058;8.688;2023-08-06T01:44:28;4.97;;;2.60;;
3747;SDS011;1889;50.058;8.688;2023-08-06T01:46:57;2.97;;;2.70;;
3747;SDS011;1889;50.058;8.688;2023-08-06T01:49:26;2.63;;;2.43;;
3747;SDS011;1889;50.058;8.688;2023-08-06T01:51:56;3.93;;;2.90;;
3747;SDS011;1889;50.058;8.688;2023-08-06T01:54:25;4.37;;;2.73;;
3747;SDS011;1889;50.058;8.688;2023-08-06T01:56:55;3.30;;;3.00;;
3747;SDS011;1889;50.058;8.688;2023-08-06T01:59:25;2.80;;;2.60;;
3747;SDS011;1889;50.058;8.688;2023-08-06T02:01:54;3.00;;;2.40;;
3747;SDS011;1889;50.058;8.688;2023-08-06T02:04:23;5.00;;;3.70;;
3747;SDS011;1889;50.058;8.688;2023-08-06T02:06:52;3.43;;;2.50;;
3747;SDS011;1889;50.058;8.688;2023-08-06T02:09:22;4.80;;;2.80;;
3747;SDS011;1889;50.058;8.688;2023-08-06T02:11:51;4.20;;;2.60;;
3747;SDS011;1889;50.058;8.688;2023-08-06T02:14:20;3.03;;;2.77;;
3747;SDS011;1889;50.058;8.688;2023-08-06T02:16:49;2.80;;;2.60;;
3747;SDS011;1889;50.058;8.688;2023-08-06T02:19:18;3.57;;;2.67;;
3747;SDS011;1889;50.058;8.688;2023-08-06T02:21:47;4.25;;;2.30;;
3747;SDS011;1889;50.058;8.688;2023-08-06T02:24:16;3.33;;;3.03;;
3747;SDS011;1889;50.058;8.688;2023-08-06T02:26:45;2.83;;;2.63;;
3747;SDS011;1889;50.058;8.688;2023-08-06T02:29:17;2.77;;;2.43;;
3747;SDS011;1889;50.058;8.688;2023-08-06T02:31:46;7.00;;;3.00;;
3747;SDS011;1889;50.058;8.688;2023-08-06T02:34:15;2.37;;;2.17;;
3747;SDS011;1889;50.058;8.688;2023-08-06T02:36:44;3.43;;;2.70;;
3747;SDS011;1889;50.058;8.688;2023-08-06T02:39:13;2.77;;;2.57;;
3747;SDS011;1889;50.058;8.688;2023-08-06T02:41:42;3.23;;;2.93;;
3747;SDS011;1889;50.058;8.688;2023-08-06T02:44:11;4.40;;;2.63;;
3747;SDS011;1889;50.058;8.688;2023-08-06T02:46:40;2.70;;;2.37;;
3747;SDS011;1889;50.058;8.688;2023-08-06T02:49:09;2.87;;;2.63;;
3747;SDS011;1889;50.058;8.688;2023-08-06T02:51:38;3.30;;;2.40;;
3747;SDS011;1889;50.058;8.688;2023-08-06T02:54:07;3.73;;;2.60;;
3747;SDS011;1889;50.058;8.688;2023-08-06T02:56:36;4.23;;;2.30;;
3747;SDS011;1889;50.058;8.688;2023-08-06T02:59:05;5.60;;;2.90;;
3747;SDS011;1889;50.058;8.688;2023-08-06T03:01:34;2.97;;;2.57;;
3747;SDS011;1889;50.058;8.688;2023-08-06T03:04:03;4.27;;;2.80;;
3747;SDS011;1889;50.058;8.688;2023-08-06T03:06:32;4.93;;;2.57;;
3747;SDS011;1889;50.058;8.688;2023-08-06T03:09:01;3.57;;;2.60;;
3747;SDS011;1889;50.058;8.688;2023-08-06T03:11:30;2.60;;;2.40;;
3747;SDS011;1889;50.058;8.688;2023-08-06T03:13:59;4.60;;;2.53;;
3747;SDS011;1889;50.058;8.688;2023-08-06T03:16:28;3.83;;;2.70;;
3747;SDS011;1889;50.058;8.688;2023-08-06T03:18:57;3.77;;;2.53;;
3747;SDS011;1889;50.058;8.688;2023-08-06T03:21:26;3.63;;;2.13;;
3747;SDS011;1889;50.058;8.688;2023-08-06T03:23:55;4.57;;;2.43;;
3747;SDS011;1889;50.058;8.688;2023-08-06T03:26:25;2.90;;;2.67;;
3747;SDS011;1889;50.058;8.688;2023-08-06T03:28:54;4.13;;;2.07;;
3747;SDS011;1889;50.058;8.688;2023-08-06T03:31:23;2.83;;;2.17;;
3747;SDS011;1889;50.058;8.688;2023-08-06T03:33:52;3.70;;;2.40;;
3747;SDS011;1889;50.058;8.688;2023-08-06T03:36:21;2.30;;;2.10;;
3747;SDS011;1889;50.058;8.688;2023-08-06T03:38:50;2.40;;;2.00;;
3747;SDS011;1889;50.058;8.688;2023-08-06T03:41:19;2.80;;;2.50;;
3747;SDS011;1889;50.058;8.688;2023-08-06T03:43:48;4.37;;;2.10;;
3747;SDS011;1889;50.058;8.688;2023-08-06T03:46:17;6.83;;;2.30;;
3747;SDS011;1889;50.058;8.688;2023-08-06T03:48:46;2.25;;;2.05;;
3747;SDS011;1889;50.058;8.688;2023-08-06T03:51:15;4.87;;;2.23;;
3747;SDS011;1889;50.058;8.688;2023-08-06T03:53:44;2.47;;;2.00;;
3747;SDS011;1889;50.058;8.688;2023-08-06T03:56:13;4.27;;;2.10;;
3747;SDS011;1889;50.058;8.688;2023-08-06T03:58:42;2.43;;;2.23;;
3747;SDS011;1889;50.058;8.688;2023-08-06T04:01:11;3.77;;;2.17;;
3747;SDS011;1889;50.058;8.688;2023-08-06T04:03:40;4.43;;;2.60;;
3747;SDS011;1889;50.058;8.688;2023-08-06T04:06:09;3.97;;;2.20;;
3747;SDS011;1889;50.058;8.688;2023-08-06T04:08:38;3.10;;;2.30;;
3747;SDS011;1889;50.058;8.688;2023-08-06T04:11:07;2.20;;;1.90;;
3747;SDS011;1889;50.058;8.688;2023-08-06T04:13:36;2.30;;;2.10;;
3747;SDS011;1889;50.058;8.688;2023-08-06T04:16:05;4.80;;;2.13;;
3747;SDS011;1889;50.058;8.688;2023-08-06T04:18:34;2.90;;;2.20;;
3747;SDS011;1889;50.058;8.688;2023-08-06T04:21:03;2.23;;;1.87;;
3747;SDS011;1889;50.058;8.688;2023-08-06T04:23:33;5.30;;;1.75;;
3747;SDS011;1889;50.058;8.688;2023-08-06T04:26:02;2.10;;;1.80;;
3747;SDS011;1889;50.058;8.688;2023-08-06T04:28:31;1.73;;;1.50;;
3747;SDS011;1889;50.058;8.688;2023-08-06T04:31:00;5.00;;;2.10;;
3747;SDS011;1889;50.058;8.688;2023-08-06T04:33:29;1.97;;;1.87;;
3747;SDS011;1889;50.058;8.688;2023-08-06T04:35:58;2.13;;;1.80;;
3747;SDS011;1889;50.058;8.688;2023-08-06T04:38:27;2.67;;;2.30;;
3747;SDS011;1889;50.058;8.688;2023-08-06T04:40:57;2.15;;;1.80;;
3747;SDS011;1889;50.058;8.688;2023-08-06T04:43:26;2.33;;;1.70;;
3747;SDS011;1889;50.058;8.688;2023-08-06T04:45:55;3.00;;;1.82;;
3747;SDS011;1889;50.058;8.688;2023-08-06T04:48:24;2.63;;;1.70;;
3747;SDS011;1889;50.058;8.688;2023-08-06T04:50:53;2.53;;;1.67;;
3747;SDS011;1889;50.058;8.688;2023-08-06T04:53:23;2.72;;;2.02;;
3747;SDS011;1889;50.058;8.688;2023-08-06T04:55:52;3.10;;;2.00;;
3747;SDS011;1889;50.058;8.688;2023-08-06T04:58:21;3.43;;;2.20;;
3747;SDS011;1889;50.058;8.688;2023-08-06T05:00:50;2.30;;;2.00;;
3747;SDS011;1889;50.058;8.688;2023-08-06T05:03:22;2.55;;;2.22;;
3747;SDS011;1889;50.058;8.688;2023-08-06T05:05:51;2.73;;;2.10;;
3747;SDS011;1889;50.058;8.688;2023-08-06T05:08:20;4.07;;;2.27;;
3747;SDS011;1889;50.058;8.688;2023-08-06T05:10:49;6.03;;;2.40;;
3747;SDS011;1889;50.058;8.688;2023-08-06T05:13:18;4.50;;;1.97;;
3747;SDS011;1889;50.058;8.688;2023-08-06T05:15:47;3.98;;;2.30;;
3747;SDS011;1889;50.058;8.688;2023-08-06T05:18:16;2.70;;;2.20;;
3747;SDS011;1889;50.058;8.688;2023-08-06T05:20:46;2.08;;;1.87;;
3747;SDS011;1889;50.058;8.688;2023-08-06T05:23:16;2.25;;;2.05;;
3747;SDS011;1889;50.058;8.688;2023-08-06T05:25:45;1.87;;;1.67;;
3747;SDS011;1889;50.058;8.688;2023-08-06T05:28:14;1.47;;;1.37;;
3747;SDS011;1889;50.058;8.688;2023-08-06T05:30:43;1.70;;;1.47;;
3747;SDS011;1889;50.058;8.688;2023-08-06T05:33:12;3.13;;;1.67;;
3747;SDS011;1889;50.058;8.688;2023-08-06T05:35:41;1.07;;;1.00;;
3747;SDS011;1889;50.058;8.688;2023-08-06T05:38:10;1.63;;;1.47;;
3747;SDS011;1889;50.058;8.688;2023-08-06T05:40:39;1.70;;;1.50;;
3747;SDS011;1889;50.058;8.688;2023-08-06T05:43:08;2.30;;;1.53;;
3747;SDS011;1889;50.058;8.688;2023-08-06T05:45:37;4.85;;;3.35;;
3747;SDS011;1889;50.058;8.688;2023-08-06T05:48:06;2.50;;;1.37;;
3747;SDS011;1889;50.058;8.688;2023-08-06T05:50:35;2.00;;;1.90;;
3747;SDS011;1889;50.058;8.688;2023-08-06T05:53:05;2.83;;;1.70;;
3747;SDS011;1889;50.058;8.688;2023-08-06T05:55:34;1.62;;;1.52;;
3747;SDS011;1889;50.058;8.688;2023-08-06T05:58:04;2.02;;;1.82;;
3747;SDS011;1889;50.058;8.688;2023-08-06T06:00:33;3.73;;;1.83;;
3747;SDS011;1889;50.058;8.688;2023-08-06T06:03:03;2.83;;;1.30;;
3747;SDS011;1889;50.058;8.688;2023-08-06T06:05:32;1.50;;;1.40;;
3747;SDS011;1889;50.058;8.688;2023-08-06T06:08:01;3.23;;;1.33;;
3747;SDS011;1889;50.058;8.688;2023-08-06T06:10:30;2.25;;;1.02;;
3747;SDS011;1889;50.058;8.688;2023-08-06T06:12:59;2.67;;;1.32;;
3747;SDS011;1889;50.058;8.688;2023-08-06T06:15:28;1.00;;;0.90;;
3747;SDS011;1889;50.058;8.688;2023-08-06T06:17:58;0.70;;;0.70;;
3747;SDS011;1889;50.058;8.688;2023-08-06T06:20:27;1.65;;;1.10;;
3747;SDS011;1889;50.058;8.688;2023-08-06T06:22:56;3.17;;;1.10;;
3747;SDS011;1889;50.058;8.688;2023-08-06T06:25:25;1.13;;;0.90;;
3747;SDS011;1889;50.058;8.688;2023-08-06T06:27:54;1.17;;;0.90;;
3747;SDS011;1889;50.058;8.688;2023-08-06T06:30:23;0.80;;;0.80;;
3747;SDS011;1889;50.058;8.688;2023-08-06T06:32:52;1.67;;;0.93;;
3747;SDS011;1889;50.058;8.688;2023-08-06T06:35:21;2.20;;;0.90;;
3747;SDS011;1889;50.058;8.688;2023-08-06T06:37:50;3.83;;;1.20;;
3747;SDS011;1889;50.058;8.688;2023-08-06T06:40:19;1.87;;;1.10;;
3747;SDS011;1889;50.058;8.688;2023-08-06T06:42:48;2.37;;;1.10;;
3747;SDS011;1889;50.058;8.688;2023-08-06T06:45:17;1.60;;;1.02;;
3747;SDS011;1889;50.058;8.688;2023-08-06T06:47:47;1.75;;;1.25;;
3747;SDS011;1889;50.058;8.688;2023-08-06T06:50:16;2.08;;;1.10;;
3747;SDS011;1889;50.058;8.688;2023-08-06T06:52:45;1.33;;;0.90;;
3747;SDS011;1889;50.058;8.688;2023-08-06T06:55:14;1.70;;;0.90;;
3747;SDS011;1889;50.058;8.688;2023-08-06T06:57:43;1.70;;;1.23;;
3747;SDS011;1889;50.058;8.688;2023-08-06T07:00:12;1.43;;;0.90;;
3747;SDS011;1889;50.058;8.688;2023-08-06T07:02:42;1.80;;;1.05;;
3747;SDS011;1889;50.058;8.688;2023-08-06T07:05:11;2.75;;;1.35;;
3747;SDS011;1889;50.058;8.688;2023-08-06T07:07:41;1.50;;;0.87;;
3747;SDS011;1889;50.058;8.688;2023-08-06T07:10:10;2.87;;;1.03;;
3747;SDS011;1889;50.058;8.688;2023-08-06T07:12:39;1.67;;;1.33;;
3747;SDS011;1889;50.058;8.688;2023-08-06T07:15:08;1.20;;;1.00;;
3747;SDS011;1889;50.058;8.688;2023-08-06T07:17:37;1.30;;;0.80;;
3747;SDS011;1889;50.058;8.688;2023-08-06T07:20:08;1.50;;;1.03;;
3747;SDS011;1889;50.058;8.688;2023-08-06T07:22:37;1.33;;;1.00;;
3747;SDS011;1889;50.058;8.688;2023-08-06T07:25:06;1.13;;;0.83;;
3747;SDS011;1889;50.058;8.688;2023-08-06T07:27:35;0.83;;;0.70;;
3747;SDS011;1889;50.058;8.688;2023-08-06T07:30:05;2.20;;;1.12;;
3747;SDS011;1889;50.058;8.688;2023-08-06T07:32:35;1.25;;;0.55;;
3747;SDS011;1889;50.058;8.688;2023-08-06T07:35:04;2.13;;;0.63;;
3747;SDS011;1889;50.058;8.688;2023-08-06T07:37:35;0.87;;;0.57;;
3747;SDS011;1889;50.058;8.688;2023-08-06T07:40:04;0.50;;;0.50;;
3747;SDS011;1889;50.058;8.688;2023-08-06T07:42:33;1.50;;;0.50;;
3747;SDS011;1889;50.058;8.688;2023-08-06T07:45:02;1.13;;;0.63;;
3747;SDS011;1889;50.058;8.688;2023-08-06T07:47:32;0.40;;;0.40;;
3747;SDS011;1889;50.058;8.688;2023-08-06T07:50:01;0.60;;;0.60;;
3747;SDS011;1889;50.058;8.688;2023-08-06T07:52:30;1.07;;;0.60;;
3747;SDS011;1889;50.058;8.688;2023-08-06T07:54:59;0.60;;;0.60;;
3747;SDS011;1889;50.058;8.688;2023-08-06T07:57:31;0.80;;;0.60;;
3747;SDS011;1889;50.058;8.688;2023-08-06T08:00:01;1.02;;;0.88;;
3747;SDS011;1889;50.058;8.688;2023-08-06T08:02:30;0.50;;;0.50;;
3747;SDS011;1889;50.058;8.688;2023-08-06T08:04:59;0.67;;;0.60;;
3747;SDS011;1889;50.058;8.688;2023-08-06T08:07:28;0.50;;;0.50;;
3747;SDS011;1889;50.058;8.688;2023-08-06T08:09:58;1.15;;;0.60;;
3747;SDS011;1889;50.058;8.688;2023-08-06T08:12:27;0.93;;;0.50;;
3747;SDS011;1889;50.058;8.688;2023-08-06T08:14:56;0.57;;;0.57;;
3747;SDS011;1889;50.058;8.688;2023-08-06T08:17:25;0.73;;;0.50;;
3747;SDS011;1889;50.058;8.688;2023-08-06T08:19:54;0.90;;;0.60;;
3747;SDS011;1889;50.058;8.688;2023-08-06T08:22:23;0.70;;;0.60;;
3747;SDS011;1889;50.058;8.688;2023-08-06T08:24:52;0.60;;;0.50;;
3747;SDS011;1889;50.058;8.688;2023-08-06T08:27:21;1.23;;;0.70;;
3747;SDS011;1889;50.058;8.688;2023-08-06T08:29:50;0.83;;;0.80;;
3747;SDS011;1889;50.058;8.688;2023-08-06T08:32:19;2.43;;;0.80;;
3747;SDS011;1889;50.058;8.688;2023-08-06T08:34:48;0.87;;;0.87;;
3747;SDS011;1889;50.058;8.688;2023-08-06T08:37:17;1.40;;;0.73;;
3747;SDS011;1889;50.058;8.688;2023-08-06T08:39:46;1.80;;;0.93;;
3747;SDS011;1889;50.058;8.688;2023-08-06T08:42:18;0.87;;;0.83;;
3747;SDS011;1889;50.058;8.688;2023-08-06T08:44:48;1.50;;;1.27;;
3747;SDS011;1889;50.058;8.688;2023-08-06T08:47:17;1.63;;;0.83;;
3747;SDS011;1889;50.058;8.688;2023-08-06T08:49:46;3.33;;;0.90;;
3747;SDS011;1889;50.058;8.688;2023-08-06T08:52:17;1.00;;;0.77;;
3747;SDS011;1889;50.058;8.688;2023-08-06T08:54:48;0.57;;;0.57;;
3747;SDS011;1889;50.058;8.688;2023-08-06T08:57:19;1.80;;;0.87;;
3747;SDS011;1889;50.058;8.688;2023-08-06T08:59:49;1.87;;;0.70;;
3747;SDS011;1889;50.058;8.688;2023-08-06T09:02:18;1.20;;;0.80;;
3747;SDS011;1889;50.058;8.688;2023-08-06T09:04:49;4.00;;;0.87;;
3747;SDS011;1889;50.058;8.688;2023-08-06T09:07:19;0.83;;;0.67;;
3747;SDS011;1889;50.058;8.688;2023-08-06T09:09:50;1.10;;;0.90;;
3747;SDS011;1889;50.058;8.688;2023-08-06T09:12:20;0.70;;;0.70;;
3747;SDS011;1889;50.058;8.688;2023-08-06T09:14:50;2.57;;;0.90;;
3747;SDS011;1889;50.058;8.688;2023-08-06T09:17:19;1.00;;;0.80;;
3747;SDS011;1889;50.058;8.688;2023-08-06T09:19:48;0.97;;;0.73;;
3747;SDS011;1889;50.058;8.688;2023-08-06T09:22:17;0.50;;;0.50;;
3747;SDS011;1889;50.058;8.688;2023-08-06T09:24:46;1.20;;;1.07;;
3747;SDS011;1889;50.058;8.688;2023-08-06T09:27:16;4.47;;;1.00;;
3747;SDS011;1889;50.058;8.688;2023-08-06T09:29:45;0.90;;;0.83;;
3747;SDS011;1889;50.058;8.688;2023-08-06T09:32:15;1.80;;;0.90;;
3747;SDS011;1889;50.058;8.688;2023-08-06T09:34:45;1.53;;;0.97;;
3747;SDS011;1889;50.058;8.688;2023-08-06T09:37:15;0.70;;;0.67;;
3747;SDS011;1889;50.058;8.688;2023-08-06T09:39:44;1.87;;;0.77;;
3747;SDS011;1889;50.058;8.688;2023-08-06T09:42:14;0.73;;;0.67;;
3747;SDS011;1889;50.058;8.688;2023-08-06T09:44:43;1.70;;;0.70;;
3747;SDS011;1889;50.058;8.688;2023-08-06T09:47:13;2.53;;;0.60;;
3747;SDS011;1889;50.058;8.688;2023-08-06T09:49:45;3.20;;;0.70;;
3747;SDS011;1889;50.058;8.688;2023-08-06T09:52:14;1.17;;;0.80;;
3747;SDS011;1889;50.058;8.688;2023-08-06T09:54:43;1.20;;;1.00;;
3747;SDS011;1889;50.058;8.688;2023-08-06T09:57:13;1.27;;;0.50;;
3747;SDS011;1889;50.058;8.688;2023-08-06T09:59:44;2.25;;;1.22;;
3747;SDS011;1889;50.058;8.688;2023-08-06T10:02:14;2.05;;;1.17;;
3747;SDS011;1889;50.058;8.688;2023-08-06T10:04:45;1.00;;;0.63;;
3747;SDS011;1889;50.058;8.688;2023-08-06T10:07:14;1.60;;;0.80;;
3747;SDS011;1889;50.058;8.688;2023-08-06T10:09:44;3.17;;;0.73;;
3747;SDS011;1889;50.058;8.688;2023-08-06T10:12:14;1.03;;;0.50;;
3747;SDS011;1889;50.058;8.688;2023-08-06T10:14:46;2.50;;;0.90;;
3747;SDS011;1889;50.058;8.688;2023-08-06T10:17:17;3.07;;;0.70;;
3747;SDS011;1889;50.058;8.688;2023-08-06T10:19:47;1.33;;;0.60;;
3747;SDS011;1889;50.058;8.688;2023-08-06T10:22:18;1.63;;;0.60;;
3747;SDS011;1889;50.058;8.688;2023-08-06T10:24:48;1.47;;;0.60;;
3747;SDS011;1889;50.058;8.688;2023-08-06T10:27:22;0.90;;;0.67;;
3747;SDS011;1889;50.058;8.688;2023-08-06T10:32:59;2.30;;;0.47;;
3747;SDS011;1889;50.058;8.688;2023-08-06T10:35:34;0.60;;;0.50;;
3747;SDS011;1889;50.058;8.688;2023-08-06T10:38:15;0.47;;;0.47;;
3747;SDS011;1889;50.058;8.688;2023-08-06T10:43:26;0.60;;;0.60;;
3747;SDS011;1889;50.058;8.688;2023-08-06T10:46:01;1.73;;;1.63;;
3747;SDS011;1889;50.058;8.688;2023-08-06T10:48:35;0.50;;;0.47;;
3747;SDS011;1889;50.058;8.688;2023-08-06T10:51:09;2.30;;;0.40;;
3747;SDS011;1889;50.058;8.688;2023-08-06T10:53:44;0.40;;;0.40;;
3747;SDS011;1889;50.058;8.688;2023-08-06T10:56:17;1.07;;;0.40;;
3747;SDS011;1889;50.058;8.688;2023-08-06T10:58:50;0.63;;;0.63;;
3747;SDS011;1889;50.058;8.688;2023-08-06T11:01:19;0.30;;;0.30;;
3747;SDS011;1889;50.058;8.688;2023-08-06T11:03:51;0.57;;;0.53;;
3747;SDS011;1889;50.058;8.688;2023-08-06T11:06:21;0.73;;;0.30;;
3747;SDS011;1889;50.058;8.688;2023-08-06T11:08:52;0.40;;;0.40;;
3747;SDS011;1889;50.058;8.688;2023-08-06T11:11:22;0.40;;;0.40;;
3747;SDS011;1889;50.058;8.688;2023-08-06T11:13:52;0.40;;;0.40;;
3747;SDS011;1889;50.058;8.688;2023-08-06T11:16:24;0.40;;;0.40;;
3747;SDS011;1889;50.058;8.688;2023-08-06T11:18:53;0.63;;;0.40;;
3747;SDS011;1889;50.058;8.688;2023-08-06T11:21:24;0.47;;;0.40;;
3747;SDS011;1889;50.058;8.688;2023-08-06T11:23:53;0.20;;;0.20;;
3747;SDS011;1889;50.058;8.688;2023-08-06T11:26:23;0.30;;;0.30;;
3747;SDS011;1889;50.058;8.688;2023-08-06T11:28:52;0.60;;;0.13;;
3747;SDS011;1889;50.058;8.688;2023-08-06T11:31:22;0.30;;;0.30;;
3747;SDS011;1889;50.058;8.688;2023-08-06T11:33:58;0.40;;;0.40;;
3747;SDS011;1889;50.058;8.688;2023-08-06T11:36:29;1.27;;;0.50;;
3747;SDS011;1889;50.058;8.688;2023-08-06T11:38:59;0.37;;;0.37;;
3747;SDS011;1889;50.058;8.688;2023-08-06T11:41:29;0.53;;;0.53;;
3747;SDS011;1889;50.058;8.688;2023-08-06T11:43:59;2.97;;;0.40;;
3747;SDS011;1889;50.058;8.688;2023-08-06T11:46:28;1.13;;;0.60;;
3747;SDS011;1889;50.058;8.688;2023-08-06T11:48:59;0.93;;;0.53;;
3747;SDS011;1889;50.058;8.688;2023-08-06T11:51:28;0.60;;;0.47;;
3747;SDS011;1889;50.058;8.688;2023-08-06T11:53:57;3.70;;;0.63;;
3747;SDS011;1889;50.058;8.688;2023-08-06T11:56:27;1.20;;;0.37;;
3747;SDS011;1889;50.058;8.688;2023-08-06T11:58:56;2.20;;;0.60;;
3747;SDS011;1889;50.058;8.688;2023-08-06T12:01:25;0.60;;;0.40;;
3747;SDS011;1889;50.058;8.688;2023-08-06T12:04:00;0.63;;;0.40;;
3747;SDS011;1889;50.058;8.688;2023-08-06T12:06:31;6.87;;;1.03;;
3747;SDS011;1889;50.058;8.688;2023-08-06T12:09:03;3.20;;;0.60;;
3747;SDS011;1889;50.058;8.688;2023-08-06T12:11:32;3.63;;;1.00;;
3747;SDS011;1889;50.058;8.688;2023-08-06T12:14:01;0.90;;;0.60;;
3747;SDS011;1889;50.058;8.688;2023-08-06T12:16:30;0.97;;;0.80;;
3747;SDS011;1889;50.058;8.688;2023-08-06T12:18:59;1.77;;;1.27;;
3747;SDS011;1889;50.058;8.688;2023-08-06T12:21:28;1.07;;;0.90;;
3747;SDS011;1889;50.058;8.688;2023-08-06T12:23:57;0.70;;;0.70;;
3747;SDS011;1889;50.058;8.688;2023-08-06T12:26:27;3.10;;;2.80;;
3747;SDS011;1889;50.058;8.688;2023-08-06T12:28:56;3.17;;;2.87;;
3747;SDS011;1889;50.058;8.688;2023-08-06T12:34:25;2.72;;;1.90;;
3747;SDS011;1889;50.058;8.688;2023-08-06T12:36:54;1.00;;;0.90;;
3747;SDS011;1889;50.058;8.688;2023-08-06T12:39:23;0.68;;;0.50;;
3747;SDS011;1889;50.058;8.688;2023-08-06T12:41:52;0.60;;;0.50;;
3747;SDS011;1889;50.058;8.688;2023-08-06T12:44:21;0.37;;;0.37;;
3747;SDS011;1889;50.058;8.688;2023-08-06T12:46:50;0.70;;;0.50;;
3747;SDS011;1889;50.058;8.688;2023-08-06T12:49:20;0.30;;;0.30;;
3747;SDS011;1889;50.058;8.688;2023-08-06T12:51:49;0.40;;;0.30;;
3747;SDS011;1889;50.058;8.688;2023-08-06T12:54:19;0.30;;;0.30;;
3747;SDS011;1889;50.058;8.688;2023-08-06T12:56:48;0.77;;;0.50;;
3747;SDS011;1889;50.058;8.688;2023-08-06T12:59:18;0.40;;;0.30;;
3747;SDS011;1889;50.058;8.688;2023-08-06T13:01:47;0.50;;;0.40;;
3747;SDS011;1889;50.058;8.688;2023-08-06T13:04:16;0.63;;;0.63;;
3747;SDS011;1889;50.058;8.688;2023-08-06T13:06:45;0.30;;;0.30;;
3747;SDS011;1889;50.058;8.688;2023-08-06T13:09:14;0.90;;;0.60;;
3747;SDS011;1889;50.058;8.688;2023-08-06T13:11:44;1.27;;;0.70;;
3747;SDS011;1889;50.058;8.688;2023-08-06T13:14:15;1.20;;;1.10;;
3747;SDS011;1889;50.058;8.688;2023-08-06T13:16:44;0.50;;;0.50;;
3747;SDS011;1889;50.058;8.688;2023-08-06T13:19:14;2.05;;;0.60;;
3747;SDS011;1889;50.058;8.688;2023-08-06T13:24:18;1.80;;;0.63;;
3747;SDS011;1889;50.058;8.688;2023-08-06T13:26:48;0.83;;;0.70;;
3747;SDS011;1889;50.058;8.688;2023-08-06T13:29:17;5.83;;;0.93;;
3747;SDS011;1889;50.058;8.688;2023-08-06T13:31:46;0.80;;;0.60;;
3747;SDS011;1889;50.058;8.688;2023-08-06T13:34:15;2.00;;;0.80;;
3747;SDS011;1889;50.058;8.688;2023-08-06T13:36:44;5.95;;;0.90;;
3747;SDS011;1889;50.058;8.688;2023-08-06T13:39:13;1.33;;;0.70;;
3747;SDS011;1889;50.058;8.688;2023-08-06T13:41:44;1.27;;;0.95;;
3747;SDS011;1889;50.058;8.688;2023-08-06T13:44:13;1.33;;;0.70;;
3747;SDS011;1889;50.058;8.688;2023-08-06T13:46:42;4.50;;;0.90;;
3747;SDS011;1889;50.058;8.688;2023-08-06T13:49:11;0.90;;;0.70;;
3747;SDS011;1889;50.058;8.688;2023-08-06T13:51:41;2.08;;;1.07;;
3747;SDS011;1889;50.058;8.688;2023-08-06T13:54:10;1.57;;;0.53;;
3747;SDS011;1889;50.058;8.688;2023-08-06T13:56:39;0.93;;;0.80;;
3747;SDS011;1889;50.058;8.688;2023-08-06T13:59:08;1.98;;;0.85;;
3747;SDS011;1889;50.058;8.688;2023-08-06T14:01:39;1.15;;;1.05;;
3747;SDS011;1889;50.058;8.688;2023-08-06T14:04:09;1.65;;;1.15;;
3747;SDS011;1889;50.058;8.688;2023-08-06T14:06:38;1.98;;;1.30;;
3747;SDS011;1889;50.058;8.688;2023-08-06T14:09:07;1.50;;;1.27;;
3747;SDS011;1889;50.058;8.688;2023-08-06T14:11:38;1.75;;;1.25;;
3747;SDS011;1889;50.058;8.688;2023-08-06T14:14:07;3.77;;;1.60;;
3747;SDS011;1889;50.058;8.688;2023-08-06T14:16:37;2.20;;;1.72;;
3747;SDS011;1889;50.058;8.688;2023-08-06T14:19:06;1.40;;;1.30;;
3747;SDS011;1889;50.058;8.688;2023-08-06T14:21:35;1.52;;;1.17;;
3747;SDS011;1889;50.058;8.688;2023-08-06T14:24:05;1.85;;;1.40;;
3747;SDS011;1889;50.058;8.688;2023-08-06T14:26:34;4.35;;;1.40;;
3747;SDS011;1889;50.058;8.688;2023-08-06T14:29:04;1.72;;;1.10;;
3747;SDS011;1889;50.058;8.688;2023-08-06T14:31:33;2.67;;;1.12;;
3747;SDS011;1889;50.058;8.688;2023-08-06T14:34:03;3.50;;;1.15;;
3747;SDS011;1889;50.058;8.688;2023-08-06T14:36:32;1.63;;;0.77;;
3747;SDS011;1889;50.058;8.688;2023-08-06T14:39:02;3.20;;;1.55;;
3747;SDS011;1889;50.058;8.688;2023-08-06T14:41:31;1.52;;;0.88;;
3747;SDS011;1889;50.058;8.688;2023-08-06T14:44:00;0.80;;;0.80;;
3747;SDS011;1889;50.058;8.688;2023-08-06T14:46:29;1.82;;;0.70;;
3747;SDS011;1889;50.058;8.688;2023-08-06T14:48:58;0.80;;;0.80;;
3747;SDS011;1889;50.058;8.688;2023-08-06T14:51:27;0.60;;;0.60;;
3747;SDS011;1889;50.058;8.688;2023-08-06T14:53:56;0.70;;;0.40;;
3747;SDS011;1889;50.058;8.688;2023-08-06T14:56:25;0.97;;;0.60;;
3747;SDS011;1889;50.058;8.688;2023-08-06T14:58:54;0.30;;;0.30;;
3747;SDS011;1889;50.058;8.688;2023-08-06T15:01:23;1.63;;;0.50;;
3747;SDS011;1889;50.058;8.688;2023-08-06T15:03:52;0.40;;;0.40;;
3747;SDS011;1889;50.058;8.688;2023-08-06T15:06:21;0.90;;;0.27;;
3747;SDS011;1889;50.058;8.688;2023-08-06T15:08:50;0.30;;;0.20;;
3747;SDS011;1889;50.058;8.688;2023-08-06T15:11:24;1.40;;;0.30;;
3747;SDS011;1889;50.058;8.688;2023-08-06T15:14:03;0.30;;;0.30;;
3747;SDS011;1889;50.058;8.688;2023-08-06T15:16:33;0.83;;;0.43;;
3747;SDS011;1889;50.058;8.688;2023-08-06T15:19:02;0.77;;;0.40;;
3747;SDS011;1889;50.058;8.688;2023-08-06T15:21:32;1.30;;;0.50;;
3747;SDS011;1889;50.058;8.688;2023-08-06T15:24:00;0.73;;;0.53;;
3747;SDS011;1889;50.058;8.688;2023-08-06T15:26:29;0.47;;;0.40;;
3747;SDS011;1889;50.058;8.688;2023-08-06T15:28:59;1.30;;;0.72;;
3747;SDS011;1889;50.058;8.688;2023-08-06T15:31:35;1.87;;;1.10;;
3747;SDS011;1889;50.058;8.688;2023-08-06T15:34:01;1.72;;;1.20;;
3747;SDS011;1889;50.058;8.688;2023-08-06T15:36:32;2.77;;;1.45;;
3747;SDS011;1889;50.058;8.688;2023-08-06T15:39:02;2.85;;;1.50;;
3747;SDS011;1889;50.058;8.688;2023-08-06T15:41:35;2.27;;;1.15;;
3747;SDS011;1889;50.058;8.688;2023-08-06T15:44:19;1.30;;;0.90;;